עמוד ראשי
METAR-TAF:

METAR-TAF

שדות תעופה :

קשם, איראן

קו רוחב: 26-45-18N, קו אורך: 055-54-08E, גובה: 12מטר

תצפית מזג אוויר נוכחית

הדו"ח נערך לפני 46דקות, בשעה 19:00 UTC
רוח 10קשר מכיוון דרום/דרום-מערב
טמפרטורת 33 צלסיוס
לחות 80%
לחץ 997 hPa
ראות: 4000מטר
אד,

METAR: OIKQ 131900Z 20010KT 4000 BR NSC 33/29 Q0997

זמן: 00:16 (19:46 UTC)


TAF: חסר

תצפיות ותחזיות מזג אוויר לגבי יותר מ- 4,000 שדות תעופה ברחבי העולם. דוחות METAR ו- TAF.

התחנות הזמינות מסומנות בנקודות צהובות ואדומות על גבי המפה.

העבר את העכבר לנקודה הצבעונית על מנת לראות את שם התחנה.

לאחר מכן, לחץ כדי לראות את תוכן ואת תחזיות מזג האוויר.

כדי לשנות את המפה: לחץ על הכפתורים הירוקים עם הפלוס השחור כדי להתקרב; על הכפתור הירוק עם המקף כדי להתרחק; או בחיצים הירוקים למפות סמוכות.


METAR-TAF: